Terminal Aerodrome Forecast
Issued by NWS

Home | Current Version | Previous Version | Text Only | Print | Product List | Glossary On
Versions: 1 2 3 4 5 6 7 8 9 10 11 12 13 14 15 16 17 18 19 20 21 22 23 24 25 26 27 28 29 30 31 32 33 34 35 36 37 38 39 40 41 42 43 44
529
FTUS41 KBOX 111128
TAFBAF
TAF
KBAF 111128Z 1112/1212 29010KT P6SM -SN OVC060
     FM111500 29010G19KT P6SM VCSH BKN060
     FM120000 30013G27KT P6SM BKN250
     FM120400 31009KT P6SM SCT250
     FM121000 31005KT P6SM FEW250=

USA.gov is the U.S. government's official web portal to all federal, state and local government web resources and services.